< < Back
Terminal Aerodrome Forecast


Current Version              Previous Versions:   1  2  3  4  5  6  7  8  9  

Terminal Aerodrome Forecast

617
FTUS42 KJAX 012341
TAFGNV
TAF
KGNV 012341Z 0200/0224 26007KT P6SM SCT060
     FM020800 VRB03KT 5SM BR SCT010 BKN200
      TEMPO 0208/0212 BKN010
     FM021300 10008KT P6SM SCT040 BKN200=

Latest METAR

892
SAUS70 KWBC 020400
MTRGNV
METAR KGNV 020353Z AUTO 26003KT 10SM BKN027 19/17 A3016 RMK AO2 SLP211
T01940172


USA.gov is the U.S. government's official web portal to all federal, state and local government web resources and services.